sensor_id;sensor_type;location;lat;lon;timestamp;pressure;altitude;pressure_sealevel;temperature;humidity
2785;BME280;57944;48.722;9.316;2023-05-08T00:02:12;98320.53;;;14.82;100.00
2785;BME280;57944;48.722;9.316;2023-05-08T00:04:42;98322.16;;;14.77;100.00
2785;BME280;57944;48.722;9.316;2023-05-08T00:07:12;98322.19;;;14.70;100.00
2785;BME280;57944;48.722;9.316;2023-05-08T00:09:42;98319.06;;;14.68;100.00
2785;BME280;57944;48.722;9.316;2023-05-08T00:12:14;98323.22;;;14.69;100.00
2785;BME280;57944;48.722;9.316;2023-05-08T00:14:44;98321.41;;;14.69;100.00
2785;BME280;57944;48.722;9.316;2023-05-08T00:17:14;98324.59;;;14.65;100.00
2785;BME280;57944;48.722;9.316;2023-05-08T00:19:44;98323.50;;;14.54;100.00
2785;BME280;57944;48.722;9.316;2023-05-08T00:22:14;98320.38;;;14.45;100.00
2785;BME280;57944;48.722;9.316;2023-05-08T00:24:44;98323.53;;;14.47;100.00
2785;BME280;57944;48.722;9.316;2023-05-08T00:27:17;98318.22;;;14.42;100.00
2785;BME280;57944;48.722;9.316;2023-05-08T00:29:47;98316.09;;;14.39;100.00
2785;BME280;57944;48.722;9.316;2023-05-08T00:32:17;98317.66;;;14.40;100.00
2785;BME280;57944;48.722;9.316;2023-05-08T00:34:48;98324.00;;;14.38;100.00
2785;BME280;57944;48.722;9.316;2023-05-08T00:37:18;98324.03;;;14.31;100.00
2785;BME280;57944;48.722;9.316;2023-05-08T00:39:48;98320.06;;;14.35;100.00
2785;BME280;57944;48.722;9.316;2023-05-08T00:42:21;98322.41;;;14.37;100.00
2785;BME280;57944;48.722;9.316;2023-05-08T00:44:51;98324.78;;;14.38;100.00
2785;BME280;57944;48.722;9.316;2023-05-08T00:47:21;98327.28;;;14.45;100.00
2785;BME280;57944;48.722;9.316;2023-05-08T00:49:51;98324.31;;;14.55;100.00
2785;BME280;57944;48.722;9.316;2023-05-08T00:52:22;98322.31;;;14.50;100.00
2785;BME280;57944;48.722;9.316;2023-05-08T00:54:53;98327.84;;;14.53;100.00
2785;BME280;57944;48.722;9.316;2023-05-08T00:57:25;98329.44;;;14.48;100.00
2785;BME280;57944;48.722;9.316;2023-05-08T00:59:57;98332.22;;;14.46;100.00
2785;BME280;57944;48.722;9.316;2023-05-08T01:02:29;98326.31;;;14.46;100.00
2785;BME280;57944;48.722;9.316;2023-05-08T01:05:00;98328.28;;;14.44;100.00
2785;BME280;57944;48.722;9.316;2023-05-08T01:07:31;98335.22;;;14.37;100.00
2785;BME280;57944;48.722;9.316;2023-05-08T01:10:01;98326.13;;;14.09;100.00
2785;BME280;57944;48.722;9.316;2023-05-08T01:12:55;98324.56;;;14.08;100.00
2785;BME280;57944;48.722;9.316;2023-05-08T01:15:30;98334.03;;;14.07;100.00
2785;BME280;57944;48.722;9.316;2023-05-08T01:18:10;98330.47;;;14.08;100.00
2785;BME280;57944;48.722;9.316;2023-05-08T01:20:47;98332.66;;;14.05;100.00
2785;BME280;57944;48.722;9.316;2023-05-08T01:26:55;98329.50;;;14.03;100.00
2785;BME280;57944;48.722;9.316;2023-05-08T01:30:08;98334.44;;;14.04;100.00
2785;BME280;57944;48.722;9.316;2023-05-08T01:32:45;98334.75;;;14.15;100.00
2785;BME280;57944;48.722;9.316;2023-05-08T01:35:24;98339.09;;;14.21;100.00
2785;BME280;57944;48.722;9.316;2023-05-08T01:38:00;98347.84;;;14.38;100.00
2785;BME280;57944;48.722;9.316;2023-05-08T01:40:36;98343.69;;;14.37;100.00
2785;BME280;57944;48.722;9.316;2023-05-08T01:43:19;98336.22;;;14.36;100.00
2785;BME280;57944;48.722;9.316;2023-05-08T01:45:54;98342.56;;;14.33;100.00
2785;BME280;57944;48.722;9.316;2023-05-08T01:48:31;98343.50;;;14.39;100.00
2785;BME280;57944;48.722;9.316;2023-05-08T01:51:05;98350.59;;;14.43;100.00
2785;BME280;57944;48.722;9.316;2023-05-08T01:53:42;98351.97;;;14.46;100.00
2785;BME280;57944;48.722;9.316;2023-05-08T01:56:15;98350.72;;;14.48;100.00
2785;BME280;57944;48.722;9.316;2023-05-08T01:58:49;98352.31;;;14.49;100.00
2785;BME280;57944;48.722;9.316;2023-05-08T02:01:22;98349.22;;;14.41;100.00
2785;BME280;57944;48.722;9.316;2023-05-08T02:03:56;98354.38;;;14.34;100.00
2785;BME280;57944;48.722;9.316;2023-05-08T02:06:29;98345.59;;;14.17;100.00
2785;BME280;57944;48.722;9.316;2023-05-08T02:09:00;98347.75;;;14.20;100.00
2785;BME280;57944;48.722;9.316;2023-05-08T02:11:31;98346.78;;;14.21;100.00
2785;BME280;57944;48.722;9.316;2023-05-08T02:14:02;98349.78;;;14.11;100.00
2785;BME280;57944;48.722;9.316;2023-05-08T02:16:33;98355.69;;;14.12;100.00
2785;BME280;57944;48.722;9.316;2023-05-08T02:19:28;98355.09;;;14.09;100.00
2785;BME280;57944;48.722;9.316;2023-05-08T02:21:59;98357.84;;;14.15;100.00
2785;BME280;57944;48.722;9.316;2023-05-08T02:24:31;98350.50;;;14.25;100.00
2785;BME280;57944;48.722;9.316;2023-05-08T02:27:02;98355.31;;;14.46;100.00
2785;BME280;57944;48.722;9.316;2023-05-08T02:29:34;98353.81;;;14.64;100.00
2785;BME280;57944;48.722;9.316;2023-05-08T02:32:07;98363.06;;;14.71;100.00
2785;BME280;57944;48.722;9.316;2023-05-08T02:34:41;98360.94;;;14.62;100.00
2785;BME280;57944;48.722;9.316;2023-05-08T02:37:29;98368.47;;;14.57;100.00
2785;BME280;57944;48.722;9.316;2023-05-08T02:40:00;98360.22;;;14.55;100.00
2785;BME280;57944;48.722;9.316;2023-05-08T02:42:32;98362.72;;;14.61;100.00
2785;BME280;57944;48.722;9.316;2023-05-08T02:45:03;98363.72;;;14.60;100.00
2785;BME280;57944;48.722;9.316;2023-05-08T02:47:40;98361.41;;;14.52;100.00
2785;BME280;57944;48.722;9.316;2023-05-08T02:50:19;98356.69;;;14.42;100.00
2785;BME280;57944;48.722;9.316;2023-05-08T02:52:52;98355.44;;;14.26;100.00
2785;BME280;57944;48.722;9.316;2023-05-08T02:55:32;98350.31;;;14.20;100.00
2785;BME280;57944;48.722;9.316;2023-05-08T02:58:12;98348.13;;;14.23;100.00
2785;BME280;57944;48.722;9.316;2023-05-08T03:00:48;98352.44;;;14.29;100.00
2785;BME280;57944;48.722;9.316;2023-05-08T03:03:24;98352.88;;;14.26;100.00
2785;BME280;57944;48.722;9.316;2023-05-08T03:05:59;98351.31;;;14.19;100.00
2785;BME280;57944;48.722;9.316;2023-05-08T03:08:33;98347.34;;;14.23;100.00
2785;BME280;57944;48.722;9.316;2023-05-08T03:11:07;98351.50;;;14.24;100.00
2785;BME280;57944;48.722;9.316;2023-05-08T03:13:39;98347.09;;;14.31;100.00
2785;BME280;57944;48.722;9.316;2023-05-08T03:16:15;98348.47;;;14.34;100.00
2785;BME280;57944;48.722;9.316;2023-05-08T03:18:50;98342.56;;;14.33;100.00
2785;BME280;57944;48.722;9.316;2023-05-08T03:21:25;98348.09;;;14.30;100.00
2785;BME280;57944;48.722;9.316;2023-05-08T03:23:58;98348.16;;;14.17;100.00
2785;BME280;57944;48.722;9.316;2023-05-08T03:26:29;98346.19;;;14.19;100.00
2785;BME280;57944;48.722;9.316;2023-05-08T03:29:00;98347.22;;;14.11;100.00
2785;BME280;57944;48.722;9.316;2023-05-08T03:31:33;98347.81;;;14.13;100.00
2785;BME280;57944;48.722;9.316;2023-05-08T03:34:05;98352.94;;;14.06;100.00
2785;BME280;57944;48.722;9.316;2023-05-08T03:36:38;98349.81;;;14.04;100.00
2785;BME280;57944;48.722;9.316;2023-05-08T03:39:08;98349.41;;;14.01;100.00
2785;BME280;57944;48.722;9.316;2023-05-08T03:41:39;98354.19;;;13.97;100.00
2785;BME280;57944;48.722;9.316;2023-05-08T03:44:09;98353.16;;;14.05;100.00
2785;BME280;57944;48.722;9.316;2023-05-08T03:46:41;98350.63;;;13.98;100.00
2785;BME280;57944;48.722;9.316;2023-05-08T03:49:11;98349.63;;;13.99;100.00
2785;BME280;57944;48.722;9.316;2023-05-08T03:51:46;98348.88;;;13.92;100.00
2785;BME280;57944;48.722;9.316;2023-05-08T03:54:16;98353.00;;;14.00;100.00
2785;BME280;57944;48.722;9.316;2023-05-08T03:56:46;98356.69;;;14.04;100.00
2785;BME280;57944;48.722;9.316;2023-05-08T03:59:23;98359.63;;;14.14;100.00
2785;BME280;57944;48.722;9.316;2023-05-08T04:02:01;98359.13;;;14.30;100.00
2785;BME280;57944;48.722;9.316;2023-05-08T04:04:38;98358.03;;;14.51;100.00
2785;BME280;57944;48.722;9.316;2023-05-08T04:07:19;98356.16;;;14.65;100.00
2785;BME280;57944;48.722;9.316;2023-05-08T04:09:58;98363.34;;;14.57;100.00
2785;BME280;57944;48.722;9.316;2023-05-08T04:12:35;98367.09;;;14.54;100.00
2785;BME280;57944;48.722;9.316;2023-05-08T04:15:10;98369.50;;;14.42;100.00
2785;BME280;57944;48.722;9.316;2023-05-08T04:17:43;98375.66;;;14.41;100.00
2785;BME280;57944;48.722;9.316;2023-05-08T04:20:18;98376.78;;;14.45;100.00
2785;BME280;57944;48.722;9.316;2023-05-08T04:22:53;98378.94;;;14.48;100.00
2785;BME280;57944;48.722;9.316;2023-05-08T04:25:24;98383.50;;;14.46;100.00
2785;BME280;57944;48.722;9.316;2023-05-08T04:27:54;98383.69;;;14.51;100.00
2785;BME280;57944;48.722;9.316;2023-05-08T04:30:26;98388.00;;;14.51;100.00
2785;BME280;57944;48.722;9.316;2023-05-08T04:32:56;98388.56;;;14.60;100.00
2785;BME280;57944;48.722;9.316;2023-05-08T04:35:27;98388.00;;;14.51;100.00
2785;BME280;57944;48.722;9.316;2023-05-08T04:38:01;98392.81;;;14.41;100.00
2785;BME280;57944;48.722;9.316;2023-05-08T04:40:31;98391.81;;;14.42;100.00
2785;BME280;57944;48.722;9.316;2023-05-08T04:43:02;98393.19;;;14.44;100.00
2785;BME280;57944;48.722;9.316;2023-05-08T04:45:31;98388.81;;;14.51;100.00
2785;BME280;57944;48.722;9.316;2023-05-08T04:48:02;98396.69;;;14.57;100.00
2785;BME280;57944;48.722;9.316;2023-05-08T04:50:32;98403.97;;;14.60;100.00
2785;BME280;57944;48.722;9.316;2023-05-08T04:53:05;98401.00;;;14.63;100.00
2785;BME280;57944;48.722;9.316;2023-05-08T04:55:35;98405.88;;;14.71;100.00
2785;BME280;57944;48.722;9.316;2023-05-08T04:58:05;98402.00;;;14.87;100.00
2785;BME280;57944;48.722;9.316;2023-05-08T05:00:35;98408.59;;;14.76;100.00
2785;BME280;57944;48.722;9.316;2023-05-08T05:03:05;98400.34;;;14.74;100.00
2785;BME280;57944;48.722;9.316;2023-05-08T05:05:35;98406.44;;;14.73;100.00
2785;BME280;57944;48.722;9.316;2023-05-08T05:08:09;98413.16;;;14.74;100.00
2785;BME280;57944;48.722;9.316;2023-05-08T05:10:39;98408.34;;;14.84;100.00
2785;BME280;57944;48.722;9.316;2023-05-08T05:13:10;98419.53;;;14.96;100.00
2785;BME280;57944;48.722;9.316;2023-05-08T05:15:41;98415.53;;;15.01;100.00
2785;BME280;57944;48.722;9.316;2023-05-08T05:18:12;98418.69;;;15.03;100.00
2785;BME280;57944;48.722;9.316;2023-05-08T05:20:42;98420.25;;;15.04;100.00
2785;BME280;57944;48.722;9.316;2023-05-08T05:23:15;98426.56;;;15.01;100.00
2785;BME280;57944;48.722;9.316;2023-05-08T05:25:45;98426.22;;;14.97;100.00
2785;BME280;57944;48.722;9.316;2023-05-08T05:28:15;98424.22;;;15.00;100.00
2785;BME280;57944;48.722;9.316;2023-05-08T05:30:45;98427.38;;;15.02;100.00
2785;BME280;57944;48.722;9.316;2023-05-08T05:33:16;98429.53;;;15.05;100.00
2785;BME280;57944;48.722;9.316;2023-05-08T05:35:46;98435.81;;;15.09;100.00
2785;BME280;57944;48.722;9.316;2023-05-08T05:38:19;98433.50;;;15.01;100.00
2785;BME280;57944;48.722;9.316;2023-05-08T05:40:49;98434.25;;;15.08;100.00
2785;BME280;57944;48.722;9.316;2023-05-08T05:43:19;98433.47;;;15.07;100.00
2785;BME280;57944;48.722;9.316;2023-05-08T05:45:49;98435.81;;;15.09;100.00
2785;BME280;57944;48.722;9.316;2023-05-08T05:48:22;98436.03;;;15.07;100.00
2785;BME280;57944;48.722;9.316;2023-05-08T05:50:52;98441.72;;;15.09;100.00
2785;BME280;57944;48.722;9.316;2023-05-08T05:53:25;98439.13;;;15.16;100.00
2785;BME280;57944;48.722;9.316;2023-05-08T05:55:55;98435.13;;;15.20;100.00
2785;BME280;57944;48.722;9.316;2023-05-08T05:58:25;98438.69;;;15.19;100.00
2785;BME280;57944;48.722;9.316;2023-05-08T06:00:57;98434.94;;;15.22;100.00
2785;BME280;57944;48.722;9.316;2023-05-08T06:03:27;98434.28;;;15.26;100.00
2785;BME280;57944;48.722;9.316;2023-05-08T06:05:57;98431.78;;;15.19;100.00
2785;BME280;57944;48.722;9.316;2023-05-08T06:08:29;98435.53;;;15.17;100.00
2785;BME280;57944;48.722;9.316;2023-05-08T06:10:59;98426.84;;;15.18;100.00
2785;BME280;57944;48.722;9.316;2023-05-08T06:13:29;98431.16;;;15.24;100.00
2785;BME280;57944;48.722;9.316;2023-05-08T06:15:59;98433.84;;;15.29;100.00
2785;BME280;57944;48.722;9.316;2023-05-08T06:18:30;98433.50;;;15.26;100.00
2785;BME280;57944;48.722;9.316;2023-05-08T06:20:59;98432.28;;;15.28;100.00
2785;BME280;57944;48.722;9.316;2023-05-08T06:23:32;98431.44;;;15.34;100.00
2785;BME280;57944;48.722;9.316;2023-05-08T06:26:02;98439.31;;;15.39;100.00
2785;BME280;57944;48.722;9.316;2023-05-08T06:28:32;98437.91;;;15.44;100.00
2785;BME280;57944;48.722;9.316;2023-05-08T06:31:02;98442.78;;;15.52;100.00
2785;BME280;57944;48.722;9.316;2023-05-08T06:33:32;98438.91;;;15.61;100.00
2785;BME280;57944;48.722;9.316;2023-05-08T06:36:03;98444.41;;;15.64;100.00
2785;BME280;57944;48.722;9.316;2023-05-08T06:38:35;98441.06;;;15.64;100.00
2785;BME280;57944;48.722;9.316;2023-05-08T06:41:05;98445.94;;;15.72;100.00
2785;BME280;57944;48.722;9.316;2023-05-08T06:43:35;98451.78;;;15.79;100.00
2785;BME280;57944;48.722;9.316;2023-05-08T06:46:05;98452.66;;;15.92;100.00
2785;BME280;57944;48.722;9.316;2023-05-08T06:48:35;98455.44;;;16.08;100.00
2785;BME280;57944;48.722;9.316;2023-05-08T06:51:05;98451.53;;;16.06;100.00
2785;BME280;57944;48.722;9.316;2023-05-08T06:53:37;98440.41;;;16.24;100.00
2785;BME280;57944;48.722;9.316;2023-05-08T06:56:07;98450.53;;;16.37;100.00
2785;BME280;57944;48.722;9.316;2023-05-08T06:58:37;98453.59;;;16.46;100.00
2785;BME280;57944;48.722;9.316;2023-05-08T07:01:07;98455.00;;;16.60;100.00
2785;BME280;57944;48.722;9.316;2023-05-08T07:03:37;98448.72;;;16.56;100.00
2785;BME280;57944;48.722;9.316;2023-05-08T07:06:07;98461.59;;;16.56;100.00
2785;BME280;57944;48.722;9.316;2023-05-08T07:08:40;98462.53;;;16.73;100.00
2785;BME280;57944;48.722;9.316;2023-05-08T07:11:10;98460.34;;;16.77;100.00
2785;BME280;57944;48.722;9.316;2023-05-08T07:13:40;98454.41;;;16.77;100.00
2785;BME280;57944;48.722;9.316;2023-05-08T07:16:12;98456.91;;;16.95;100.00
2785;BME280;57944;48.722;9.316;2023-05-08T07:18:42;98469.03;;;17.06;100.00
2785;BME280;57944;48.722;9.316;2023-05-08T07:21:12;98460.41;;;17.12;100.00
2785;BME280;57944;48.722;9.316;2023-05-08T07:23:47;98457.75;;;17.19;100.00
2785;BME280;57944;48.722;9.316;2023-05-08T07:26:19;98469.50;;;17.27;100.00
2785;BME280;57944;48.722;9.316;2023-05-08T07:28:50;98468.19;;;17.36;100.00
2785;BME280;57944;48.722;9.316;2023-05-08T07:31:20;98466.13;;;17.38;100.00
2785;BME280;57944;48.722;9.316;2023-05-08T07:33:50;98474.09;;;17.36;100.00
2785;BME280;57944;48.722;9.316;2023-05-08T07:36:20;98473.78;;;17.33;100.00
2785;BME280;57944;48.722;9.316;2023-05-08T07:38:53;98475.34;;;17.34;100.00
2785;BME280;57944;48.722;9.316;2023-05-08T07:41:23;98470.41;;;17.44;100.00
2785;BME280;57944;48.722;9.316;2023-05-08T07:43:53;98467.47;;;17.52;100.00
2785;BME280;57944;48.722;9.316;2023-05-08T07:46:23;98472.66;;;17.64;100.00
2785;BME280;57944;48.722;9.316;2023-05-08T07:48:53;98474.19;;;17.77;100.00
2785;BME280;57944;48.722;9.316;2023-05-08T07:51:23;98469.63;;;17.91;100.00
2785;BME280;57944;48.722;9.316;2023-05-08T07:53:55;98469.16;;;17.94;100.00
2785;BME280;57944;48.722;9.316;2023-05-08T07:56:25;98477.28;;;18.26;100.00
2785;BME280;57944;48.722;9.316;2023-05-08T07:58:55;98472.59;;;18.23;100.00
2785;BME280;57944;48.722;9.316;2023-05-08T08:01:26;98475.63;;;18.48;100.00
2785;BME280;57944;48.722;9.316;2023-05-08T08:03:56;98474.69;;;18.54;100.00
2785;BME280;57944;48.722;9.316;2023-05-08T08:06:26;98477.09;;;18.73;100.00
2785;BME280;57944;48.722;9.316;2023-05-08T08:08:59;98479.34;;;18.81;100.00
2785;BME280;57944;48.722;9.316;2023-05-08T08:11:29;98480.69;;;18.72;100.00
2785;BME280;57944;48.722;9.316;2023-05-08T08:13:59;98488.53;;;18.77;100.00
2785;BME280;57944;48.722;9.316;2023-05-08T08:16:29;98482.00;;;18.86;100.00
2785;BME280;57944;48.722;9.316;2023-05-08T08:18:59;98479.66;;;19.02;100.00
2785;BME280;57944;48.722;9.316;2023-05-08T08:21:29;98486.84;;;19.00;100.00
2785;BME280;57944;48.722;9.316;2023-05-08T08:24:01;98486.25;;;19.09;100.00
2785;BME280;57944;48.722;9.316;2023-05-08T08:26:31;98492.66;;;19.40;100.00
2785;BME280;57944;48.722;9.316;2023-05-08T08:29:01;98489.03;;;19.58;100.00
2785;BME280;57944;48.722;9.316;2023-05-08T08:31:31;98494.84;;;19.49;100.00
2785;BME280;57944;48.722;9.316;2023-05-08T08:34:01;98494.00;;;19.43;100.00
2785;BME280;57944;48.722;9.316;2023-05-08T08:36:31;98500.88;;;19.37;100.00
2785;BME280;57944;48.722;9.316;2023-05-08T08:39:04;98499.09;;;19.04;100.00
2785;BME280;57944;48.722;9.316;2023-05-08T08:41:38;98486.38;;;18.86;100.00
2785;BME280;57944;48.722;9.316;2023-05-08T08:44:08;98483.09;;;18.90;100.00
2785;BME280;57944;48.722;9.316;2023-05-08T08:46:43;98484.03;;;18.84;100.00
2785;BME280;57944;48.722;9.316;2023-05-08T08:49:18;98485.13;;;18.88;100.00
2785;BME280;57944;48.722;9.316;2023-05-08T08:51:53;98490.00;;;19.35;100.00
2785;BME280;57944;48.722;9.316;2023-05-08T08:54:28;98490.31;;;19.56;100.00
2785;BME280;57944;48.722;9.316;2023-05-08T08:57:00;98492.03;;;19.67;100.00
2785;BME280;57944;48.722;9.316;2023-05-08T08:59:30;98492.78;;;19.84;100.00
2785;BME280;57944;48.722;9.316;2023-05-08T09:02:05;98494.28;;;19.63;100.00
2785;BME280;57944;48.722;9.316;2023-05-08T09:04:38;98496.97;;;19.52;100.00
2785;BME280;57944;48.722;9.316;2023-05-08T09:07:08;98498.13;;;19.61;100.00
2785;BME280;57944;48.722;9.316;2023-05-08T09:09:42;98495.00;;;19.76;100.00
2785;BME280;57944;48.722;9.316;2023-05-08T09:12:12;98494.63;;;19.89;100.00
2785;BME280;57944;48.722;9.316;2023-05-08T09:14:42;98492.47;;;20.03;100.00
2785;BME280;57944;48.722;9.316;2023-05-08T09:17:12;98490.50;;;20.10;100.00
2785;BME280;57944;48.722;9.316;2023-05-08T09:19:42;98493.59;;;19.68;100.00
2785;BME280;57944;48.722;9.316;2023-05-08T09:22:12;98491.28;;;19.89;100.00
2785;BME280;57944;48.722;9.316;2023-05-08T09:24:58;98489.72;;;19.88;100.00
2785;BME280;57944;48.722;9.316;2023-05-08T09:27:30;98494.47;;;19.96;100.00
2785;BME280;57944;48.722;9.316;2023-05-08T09:30:03;98495.63;;;20.05;100.00
2785;BME280;57944;48.722;9.316;2023-05-08T09:32:35;98492.91;;;19.95;100.00
2785;BME280;57944;48.722;9.316;2023-05-08T09:35:07;98494.47;;;19.96;100.00
2785;BME280;57944;48.722;9.316;2023-05-08T09:37:38;98490.28;;;19.90;100.00
2785;BME280;57944;48.722;9.316;2023-05-08T09:40:18;98487.47;;;19.74;100.00
2785;BME280;57944;48.722;9.316;2023-05-08T09:42:49;98487.41;;;19.91;100.00
2785;BME280;57944;48.722;9.316;2023-05-08T09:45:26;98496.28;;;19.95;100.00
2785;BME280;57944;48.722;9.316;2023-05-08T09:47:58;98495.03;;;19.42;100.00
2785;BME280;57944;48.722;9.316;2023-05-08T09:50:28;98488.88;;;19.65;100.00
2785;BME280;57944;48.722;9.316;2023-05-08T09:52:59;98496.94;;;19.85;100.00
2785;BME280;57944;48.722;9.316;2023-05-08T09:55:45;98490.38;;;20.00;100.00
2785;BME280;57944;48.722;9.316;2023-05-08T09:58:15;98498.56;;;19.92;100.00
2785;BME280;57944;48.722;9.316;2023-05-08T10:00:45;98497.34;;;19.60;100.00
2785;BME280;57944;48.722;9.316;2023-05-08T10:03:15;98495.94;;;19.53;100.00
2785;BME280;57944;48.722;9.316;2023-05-08T10:05:46;98501.44;;;19.73;100.00
2785;BME280;57944;48.722;9.316;2023-05-08T10:08:20;98503.44;;;20.10;100.00
2785;BME280;57944;48.722;9.316;2023-05-08T10:11:12;98500.00;;;19.82;100.00
2785;BME280;57944;48.722;9.316;2023-05-08T10:13:43;98495.03;;;19.25;100.00
2785;BME280;57944;48.722;9.316;2023-05-08T10:16:14;98497.28;;;19.38;100.00
2785;BME280;57944;48.722;9.316;2023-05-08T10:18:45;98496.88;;;19.13;100.00
2785;BME280;57944;48.722;9.316;2023-05-08T10:21:16;98496.00;;;18.62;100.00
2785;BME280;57944;48.722;9.316;2023-05-08T10:23:48;98499.56;;;18.72;100.00
2785;BME280;57944;48.722;9.316;2023-05-08T10:26:26;98491.06;;;18.31;100.00
2785;BME280;57944;48.722;9.316;2023-05-08T10:28:57;98493.06;;;18.29;100.00
2785;BME280;57944;48.722;9.316;2023-05-08T10:31:30;98490.94;;;18.67;100.00
2785;BME280;57944;48.722;9.316;2023-05-08T10:34:03;98486.31;;;18.69;100.00
2785;BME280;57944;48.722;9.316;2023-05-08T10:36:35;98481.16;;;18.69;100.00
2785;BME280;57944;48.722;9.316;2023-05-08T10:39:06;98492.88;;;18.88;100.00
2785;BME280;57944;48.722;9.316;2023-05-08T10:41:40;98495.44;;;18.88;100.00
2785;BME280;57944;48.722;9.316;2023-05-08T10:44:10;98487.03;;;18.52;100.00
2785;BME280;57944;48.722;9.316;2023-05-08T10:46:47;98486.66;;;18.03;100.00
2785;BME280;57944;48.722;9.316;2023-05-08T10:49:24;98487.88;;;17.65;100.00
2785;BME280;57944;48.722;9.316;2023-05-08T10:52:08;98485.53;;;17.76;100.00
2785;BME280;57944;48.722;9.316;2023-05-08T10:54:50;98489.47;;;17.67;100.00
2785;BME280;57944;48.722;9.316;2023-05-08T10:57:23;98483.66;;;17.83;100.00
2785;BME280;57944;48.722;9.316;2023-05-08T10:59:53;98486.47;;;18.22;100.00
2785;BME280;57944;48.722;9.316;2023-05-08T11:02:28;98484.13;;;18.20;100.00
2785;BME280;57944;48.722;9.316;2023-05-08T11:05:15;98481.31;;;18.34;100.00
2785;BME280;57944;48.722;9.316;2023-05-08T11:07:53;98484.06;;;18.03;100.00
2785;BME280;57944;48.722;9.316;2023-05-08T11:10:29;98484.56;;;17.89;100.00
2785;BME280;57944;48.722;9.316;2023-05-08T11:13:05;98480.38;;;17.76;100.00
2785;BME280;57944;48.722;9.316;2023-05-08T11:15:38;98480.03;;;17.60;100.00
2785;BME280;57944;48.722;9.316;2023-05-08T11:18:09;98484.09;;;17.80;100.00
2785;BME280;57944;48.722;9.316;2023-05-08T11:20:40;98486.78;;;17.85;100.00
2785;BME280;57944;48.722;9.316;2023-05-08T11:23:23;98482.72;;;18.01;100.00
2785;BME280;57944;48.722;9.316;2023-05-08T11:26:01;98480.59;;;18.38;100.00
2785;BME280;57944;48.722;9.316;2023-05-08T11:28:36;98479.44;;;18.46;100.00
2785;BME280;57944;48.722;9.316;2023-05-08T11:31:07;98476.50;;;18.25;100.00
2785;BME280;57944;48.722;9.316;2023-05-08T11:33:37;98469.97;;;17.94;100.00
2785;BME280;57944;48.722;9.316;2023-05-08T11:36:11;98469.44;;;17.80;100.00
2785;BME280;57944;48.722;9.316;2023-05-08T11:38:43;98474.22;;;17.41;100.00
2785;BME280;57944;48.722;9.316;2023-05-08T11:41:33;98475.00;;;17.30;100.00
2785;BME280;57944;48.722;9.316;2023-05-08T11:44:21;98469.03;;;17.30;100.00
2785;BME280;57944;48.722;9.316;2023-05-08T11:46:53;98474.75;;;17.20;100.00
2785;BME280;57944;48.722;9.316;2023-05-08T11:49:25;98468.94;;;17.36;100.00
2785;BME280;57944;48.722;9.316;2023-05-08T11:51:57;98466.47;;;17.65;100.00
2785;BME280;57944;48.722;9.316;2023-05-08T11:54:29;98460.28;;;18.01;100.00
2785;BME280;57944;48.722;9.316;2023-05-08T11:57:00;98460.25;;;18.25;100.00
2785;BME280;57944;48.722;9.316;2023-05-08T11:59:36;98457.91;;;18.81;100.00
2785;BME280;57944;48.722;9.316;2023-05-08T12:02:06;98465.19;;;18.84;100.00
2785;BME280;57944;48.722;9.316;2023-05-08T12:04:43;98463.69;;;18.88;100.00
2785;BME280;57944;48.722;9.316;2023-05-08T12:07:14;98466.50;;;18.86;100.00
2785;BME280;57944;48.722;9.316;2023-05-08T12:09:45;98458.66;;;18.52;100.00
2785;BME280;57944;48.722;9.316;2023-05-08T12:12:15;98468.66;;;18.78;100.00
2785;BME280;57944;48.722;9.316;2023-05-08T12:14:50;98469.84;;;19.54;100.00
2785;BME280;57944;48.722;9.316;2023-05-08T12:17:20;98467.16;;;20.05;100.00
2785;BME280;57944;48.722;9.316;2023-05-08T12:19:53;98465.53;;;20.70;100.00
2785;BME280;57944;48.722;9.316;2023-05-08T12:22:30;98468.03;;;21.24;100.00
2785;BME280;57944;48.722;9.316;2023-05-08T12:25:02;98469.81;;;22.14;100.00
2785;BME280;57944;48.722;9.316;2023-05-08T12:27:32;98468.91;;;22.81;100.00
2785;BME280;57944;48.722;9.316;2023-05-08T12:30:08;98465.03;;;22.89;100.00
2785;BME280;57944;48.722;9.316;2023-05-08T12:35:10;98465.28;;;23.33;96.77
2785;BME280;57944;48.722;9.316;2023-05-08T12:37:41;98467.28;;;23.72;91.22
2785;BME280;57944;48.722;9.316;2023-05-08T12:40:24;98462.84;;;24.38;90.18
2785;BME280;57944;48.722;9.316;2023-05-08T12:42:54;98465.09;;;24.89;86.73
2785;BME280;57944;48.722;9.316;2023-05-08T12:45:28;98465.66;;;25.44;76.50
2785;BME280;57944;48.722;9.316;2023-05-08T12:48:01;98465.50;;;25.35;83.78
2785;BME280;57944;48.722;9.316;2023-05-08T12:50:33;98471.44;;;24.78;82.24
2785;BME280;57944;48.722;9.316;2023-05-08T12:53:04;98462.19;;;24.61;88.49
2785;BME280;57944;48.722;9.316;2023-05-08T12:55:36;98460.22;;;25.11;79.17
2785;BME280;57944;48.722;9.316;2023-05-08T12:58:07;98458.44;;;25.36;80.42
2785;BME280;57944;48.722;9.316;2023-05-08T13:00:45;98457.09;;;25.09;83.89
2785;BME280;57944;48.722;9.316;2023-05-08T13:03:21;98465.88;;;24.89;73.90
2785;BME280;57944;48.722;9.316;2023-05-08T13:05:53;98468.34;;;24.26;73.34
2785;BME280;57944;48.722;9.316;2023-05-08T13:08:29;98465.00;;;24.15;83.28
2785;BME280;57944;48.722;9.316;2023-05-08T13:11:00;98472.91;;;24.05;81.37
2785;BME280;57944;48.722;9.316;2023-05-08T13:13:32;98463.50;;;24.04;83.99
2785;BME280;57944;48.722;9.316;2023-05-08T13:16:06;98460.47;;;23.81;89.88
2785;BME280;57944;48.722;9.316;2023-05-08T13:18:36;98452.19;;;23.69;87.04
2785;BME280;57944;48.722;9.316;2023-05-08T13:21:06;98446.50;;;23.52;85.25
2785;BME280;57944;48.722;9.316;2023-05-08T13:23:36;98445.06;;;24.50;81.33
2785;BME280;57944;48.722;9.316;2023-05-08T13:26:06;98442.09;;;26.35;68.10
2785;BME280;57944;48.722;9.316;2023-05-08T13:28:36;98455.59;;;26.61;58.82
2785;BME280;57944;48.722;9.316;2023-05-08T13:31:09;98455.47;;;26.52;62.68
2785;BME280;57944;48.722;9.316;2023-05-08T13:33:39;98451.00;;;24.56;69.86
2785;BME280;57944;48.722;9.316;2023-05-08T13:36:09;98453.06;;;24.93;73.88